Time;durP1;ratioP1;P1;durP2;ratioP2;P2;SDS_P1;SDS_P2;PMS_P1;PMS_P2;Temp;Humidity;BMP_temperature;BMP_pressure;BME280_temperature;BME280_humidity;BME280_pressure;Samples;Min_cycle;Max_cycle;Signal;HPM_P1;HPM_P2
2024/04/18 00:00:58;;;;;;;4.20;3.90;;;8.00;99.90;;;;;;2234349;26;20875;-71
2024/04/18 00:01:59;;;;;;;5.22;4.72;;;8.00;99.90;;;;;;2235779;26;20448;-72
2024/04/18 00:02:59;;;;;;;5.47;4.90;;;8.00;99.90;;;;;;2236349;26;20452;-71
2024/04/18 00:04:00;;;;;;;8.82;5.30;;;8.00;99.90;;;;;;2237127;26;20074;-71
2024/04/18 00:05:01;;;;;;;5.53;5.00;;;8.00;99.90;;;;;;2236027;26;19995;-71
2024/04/18 00:06:01;;;;;;;5.68;5.15;;;8.00;99.90;;;;;;2237988;26;20540;-71
2024/04/18 00:07:02;;;;;;;5.43;4.93;;;8.00;99.90;;;;;;2235757;26;20039;-71
2024/04/18 00:08:04;;;;;;;4.95;4.55;;;8.00;99.90;;;;;;2237783;26;19999;-71
2024/04/18 00:09:04;;;;;;;5.20;4.50;;;8.00;99.90;;;;;;2235725;26;20014;-71
2024/04/18 00:10:05;;;;;;;5.60;5.00;;;8.00;99.90;;;;;;2235965;26;20046;-71
2024/04/18 00:11:06;;;;;;;5.55;5.05;;;8.00;99.90;;;;;;2236017;26;20003;-71
2024/04/18 00:12:06;;;;;;;6.07;5.40;;;8.00;99.90;;;;;;2238286;26;19999;-71
2024/04/18 00:13:07;;;;;;;6.30;5.68;;;8.00;99.90;;;;;;2235416;26;19999;-71
2024/04/18 00:14:07;;;;;;;7.25;5.03;;;8.00;99.90;;;;;;2235293;26;20003;-71
2024/04/18 00:15:13;;;;;;;6.47;5.13;;;8.00;99.90;;;;;;2237436;26;20018;-71
2024/04/18 00:16:13;;;;;;;6.13;5.53;;;8.00;99.90;;;;;;2236074;26;20441;-71
2024/04/18 00:17:14;;;;;;;5.90;5.15;;;8.00;99.90;;;;;;2236640;26;20000;-71
2024/04/18 00:18:14;;;;;;;5.63;5.13;;;8.00;99.90;;;;;;2237992;26;20014;-70
2024/04/18 00:19:16;;;;;;;6.65;5.07;;;8.00;99.90;;;;;;2236693;26;20000;-71
2024/04/18 00:20:17;;;;;;;7.32;5.00;;;7.90;99.90;;;;;;2237291;26;20047;-71
2024/04/18 00:21:17;;;;;;;5.57;5.05;;;8.00;99.90;;;;;;2236468;26;20075;-71
2024/04/18 00:22:18;;;;;;;5.80;5.20;;;8.00;99.90;;;;;;2237114;26;20066;-71
2024/04/18 00:23:18;;;;;;;5.47;4.97;;;8.00;99.90;;;;;;2237704;26;20044;-71
2024/04/18 00:24:19;;;;;;;6.15;5.53;;;8.00;99.90;;;;;;2234300;26;20015;-71
2024/04/18 00:25:19;;;;;;;6.15;4.97;;;8.00;99.90;;;;;;2234090;26;20020;-71
2024/04/18 00:26:20;;;;;;;7.53;5.00;;;8.00;99.90;;;;;;2219133;26;20008;-71
2024/04/18 00:27:20;;;;;;;5.30;4.90;;;8.00;99.90;;;;;;2232481;26;20850;-71
2024/04/18 00:28:21;;;;;;;5.60;5.03;;;8.00;99.90;;;;;;2237320;26;20100;-71
2024/04/18 00:29:21;;;;;;;8.45;5.00;;;8.00;99.90;;;;;;2236837;26;19999;-71
2024/04/18 00:30:24;;;;;;;4.95;4.50;;;8.00;99.90;;;;;;2237025;26;20111;-71
2024/04/18 00:31:24;;;;;;;5.30;4.80;;;8.00;99.90;;;;;;2232300;26;20011;-71
2024/04/18 00:32:25;;;;;;;5.85;5.32;;;7.90;99.90;;;;;;2232056;26;20018;-71
2024/04/18 00:33:25;;;;;;;6.47;5.15;;;8.00;99.90;;;;;;2236978;26;20004;-72
2024/04/18 00:34:26;;;;;;;4.47;4.07;;;8.00;99.90;;;;;;2235367;26;19995;-72
2024/04/18 00:35:26;;;;;;;4.88;4.47;;;7.90;99.90;;;;;;2237457;26;20153;-72
2024/04/18 00:36:27;;;;;;;5.68;4.80;;;8.00;99.90;;;;;;2237017;26;20007;-72
2024/04/18 00:37:27;;;;;;;5.20;4.70;;;8.00;99.90;;;;;;2235840;26;20081;-71
2024/04/18 00:38:29;;;;;;;5.07;4.65;;;7.90;99.90;;;;;;2235782;26;20014;-71
2024/04/18 00:39:29;;;;;;;5.22;4.80;;;8.00;99.90;;;;;;2236351;26;21124;-71
2024/04/18 00:40:30;;;;;;;5.15;4.70;;;8.00;99.90;;;;;;2235669;26;20512;-71
2024/04/18 00:41:30;;;;;;;5.40;4.90;;;8.00;99.90;;;;;;2236486;26;20500;-71
2024/04/18 00:42:31;;;;;;;6.80;5.15;;;8.00;99.90;;;;;;2239845;26;20095;-71
2024/04/18 00:43:31;;;;;;;5.22;4.32;;;8.00;99.90;;;;;;2237429;26;19999;-72
2024/04/18 00:44:32;;;;;;;6.32;5.28;;;8.00;99.90;;;;;;2236395;26;20080;-71
2024/04/18 00:45:33;;;;;;;6.22;5.45;;;8.00;99.90;;;;;;2234172;26;20954;-71
2024/04/18 00:46:33;;;;;;;5.75;4.53;;;8.00;99.90;;;;;;2237154;26;20036;-71
2024/04/18 00:47:35;;;;;;;6.05;5.20;;;8.00;99.90;;;;;;2234173;26;19995;-71
2024/04/18 00:48:35;;;;;;;5.10;4.60;;;8.00;99.90;;;;;;2237516;26;20098;-71
2024/04/18 00:49:36;;;;;;;4.65;4.25;;;8.00;99.90;;;;;;2234878;26;20132;-71
2024/04/18 00:50:36;;;;;;;4.50;4.10;;;8.00;99.90;;;;;;2235867;26;19999;-71
2024/04/18 00:51:37;;;;;;;5.55;4.70;;;8.00;99.90;;;;;;2235950;26;20007;-71
2024/04/18 00:52:39;;;;;;;4.47;4.07;;;8.00;99.90;;;;;;2236745;26;19999;-71
2024/04/18 00:53:40;;;;;;;5.78;4.22;;;8.00;99.90;;;;;;2235815;26;20333;-71
2024/04/18 00:54:40;;;;;;;5.65;4.22;;;8.00;99.90;;;;;;2236546;26;20068;-71
2024/04/18 00:55:41;;;;;;;6.63;4.50;;;8.00;99.90;;;;;;2232801;26;20072;-71
2024/04/18 00:56:44;;;;;;;5.20;4.70;;;8.00;99.90;;;;;;2237651;26;20665;-71
2024/04/18 00:57:45;;;;;;;5.10;4.60;;;8.00;99.90;;;;;;2236048;26;20072;-71
2024/04/18 00:58:48;;;;;;;5.43;4.93;;;8.00;99.90;;;;;;2235207;26;20068;-71
2024/04/18 00:59:50;;;;;;;5.40;4.90;;;8.10;99.90;;;;;;2237167;26;20353;-71
2024/04/18 01:00:52;;;;;;;6.63;4.38;;;8.10;99.90;;;;;;2236527;26;20003;-71
2024/04/18 01:01:53;;;;;;;4.90;4.35;;;8.00;99.90;;;;;;2234349;26;20936;-71
2024/04/18 01:02:53;;;;;;;6.90;4.55;;;8.10;99.90;;;;;;2235297;26;20421;-71
2024/04/18 01:03:55;;;;;;;4.60;4.15;;;8.10;99.90;;;;;;2236598;26;20400;-71
2024/04/18 01:04:57;;;;;;;4.97;4.47;;;8.10;99.90;;;;;;2231574;26;20444;-71
2024/04/18 01:05:58;;;;;;;5.78;4.20;;;8.10;99.90;;;;;;2221802;26;20000;-71
2024/04/18 01:06:58;;;;;;;4.85;4.45;;;8.00;99.90;;;;;;2232563;26;20027;-71
2024/04/18 01:07:59;;;;;;;7.57;4.70;;;8.10;99.90;;;;;;2236339;26;20876;-71
2024/04/18 01:09:01;;;;;;;4.80;4.20;;;8.10;99.90;;;;;;2233472;26;20434;-70
2024/04/18 01:10:02;;;;;;;7.25;4.40;;;8.10;99.90;;;;;;2249515;26;20335;-71
2024/04/18 01:11:02;;;;;;;5.20;4.70;;;8.10;99.90;;;;;;2240214;26;20018;-71
2024/04/18 01:12:03;;;;;;;5.57;5.07;;;8.10;99.90;;;;;;2237984;26;20333;-71
2024/04/18 01:13:04;;;;;;;7.47;4.82;;;8.10;99.90;;;;;;2236355;26;20363;-71
2024/04/18 01:14:11;;;;;;;6.00;5.40;;;8.10;99.90;;;;;;2231182;26;20015;-70
2024/04/18 01:15:11;;;;;;;6.82;6.18;;;8.10;99.90;;;;;;2231485;26;19996;-71
2024/04/18 01:16:12;;;;;;;9.60;7.85;;;8.10;99.90;;;;;;2236276;26;20069;-71
2024/04/18 01:17:12;;;;;;;8.68;7.78;;;8.10;99.90;;;;;;2236213;26;20018;-70
2024/04/18 01:18:13;;;;;;;8.82;7.78;;;8.10;99.90;;;;;;2237721;26;20004;-71
2024/04/18 01:19:18;;;;;;;11.05;9.88;;;8.00;99.90;;;;;;2236051;26;19999;-70
2024/04/18 01:20:21;;;;;;;13.65;11.82;;;8.10;99.90;;;;;;2236103;26;20079;-71
2024/04/18 01:21:22;;;;;;;12.80;10.57;;;8.00;99.90;;;;;;2231024;26;19996;-70
2024/04/18 01:22:22;;;;;;;12.50;11.27;;;8.10;99.90;;;;;;2234278;26;20027;-70
2024/04/18 01:23:27;;;;;;;10.15;9.15;;;8.10;99.90;;;;;;2237263;26;20086;-71
2024/04/18 01:24:27;;;;;;;11.75;10.50;;;8.00;99.90;;;;;;2233688;26;20015;-70
2024/04/18 01:25:28;;;;;;;11.77;10.07;;;8.00;99.90;;;;;;2234748;26;20043;-70
2024/04/18 01:26:29;;;;;;;10.32;9.27;;;8.10;99.90;;;;;;2237067;26;20003;-71
2024/04/18 01:27:29;;;;;;;14.02;10.88;;;8.10;99.90;;;;;;2235976;26;20003;-70
2024/04/18 01:28:30;;;;;;;12.15;9.88;;;8.10;99.90;;;;;;2248646;26;20050;-71
2024/04/18 01:29:30;;;;;;;11.73;9.18;;;8.00;99.90;;;;;;2249014;26;20446;-70
2024/04/18 01:30:31;;;;;;;12.63;9.00;;;8.10;99.90;;;;;;2235514;26;20409;-70
2024/04/18 01:31:32;;;;;;;11.10;8.35;;;8.10;99.90;;;;;;2229930;26;20011;-71
2024/04/18 01:32:33;;;;;;;13.10;9.32;;;8.10;99.90;;;;;;2232608;26;20047;-70
2024/04/18 01:33:34;;;;;;;13.07;9.68;;;8.10;99.90;;;;;;2236774;26;20007;-70
2024/04/18 01:34:34;;;;;;;13.02;9.98;;;8.10;99.90;;;;;;2235538;26;20084;-70
2024/04/18 01:35:35;;;;;;;11.77;9.32;;;8.00;99.90;;;;;;2236290;26;20003;-71
2024/04/18 01:36:35;;;;;;;9.85;8.27;;;8.10;99.90;;;;;;2236089;26;20021;-70
2024/04/18 01:37:36;;;;;;;10.70;7.78;;;8.10;99.90;;;;;;2235446;26;19999;-70
2024/04/18 01:38:37;;;;;;;11.52;7.75;;;8.10;99.90;;;;;;2234569;26;20047;-70
2024/04/18 01:39:37;;;;;;;10.40;7.35;;;8.10;99.90;;;;;;2236966;26;20014;-70
2024/04/18 01:40:38;;;;;;;14.07;8.35;;;8.10;99.90;;;;;;2235393;26;20016;-70
2024/04/18 01:41:38;;;;;;;10.35;7.75;;;8.10;99.90;;;;;;2237327;26;20000;-70
2024/04/18 01:42:39;;;;;;;9.48;7.60;;;8.10;99.90;;;;;;2235273;26;20080;-70
2024/04/18 01:43:40;;;;;;;10.57;8.63;;;8.10;99.90;;;;;;2228198;26;20007;-70
2024/04/18 01:44:41;;;;;;;11.32;8.68;;;8.10;99.90;;;;;;2231341;26;20069;-70
2024/04/18 01:45:41;;;;;;;10.38;8.77;;;8.10;99.90;;;;;;2235848;26;20445;-70
2024/04/18 01:46:42;;;;;;;10.65;9.57;;;8.10;99.90;;;;;;2236715;26;19999;-70
2024/04/18 01:47:43;;;;;;;10.43;7.40;;;8.10;99.90;;;;;;2236565;26;20344;-71
2024/04/18 01:48:45;;;;;;;10.38;7.80;;;8.10;99.90;;;;;;2236079;26;20331;-70
2024/04/18 01:49:46;;;;;;;9.63;7.25;;;8.10;99.90;;;;;;2234479;26;20015;-70
2024/04/18 01:50:47;;;;;;;10.50;7.60;;;8.10;99.90;;;;;;2235764;26;20031;-70
2024/04/18 01:51:47;;;;;;;8.45;7.53;;;8.10;99.90;;;;;;2232244;26;20014;-70
2024/04/18 01:52:48;;;;;;;9.88;6.75;;;8.10;99.90;;;;;;2233549;26;20421;-70
2024/04/18 01:53:48;;;;;;;8.80;6.78;;;8.10;99.90;;;;;;2235987;26;20377;-70
2024/04/18 01:54:49;;;;;;;10.00;6.82;;;8.10;99.90;;;;;;2236306;26;20022;-70
2024/04/18 01:55:49;;;;;;;12.63;7.57;;;8.10;99.90;;;;;;2235128;26;20003;-70
2024/04/18 01:56:50;;;;;;;11.68;7.00;;;8.10;99.90;;;;;;2234926;26;19996;-70
2024/04/18 01:57:50;;;;;;;7.72;6.45;;;8.10;99.90;;;;;;2234469;26;20000;-70
2024/04/18 01:58:51;;;;;;;9.40;6.03;;;8.10;99.90;;;;;;2233625;26;20000;-70
2024/04/18 01:59:52;;;;;;;8.48;6.45;;;8.10;99.90;;;;;;2236041;26;20027;-70
2024/04/18 02:00:52;;;;;;;7.03;5.93;;;8.10;99.90;;;;;;2233725;26;20106;-70
2024/04/18 02:01:53;;;;;;;7.60;5.82;;;8.10;99.90;;;;;;2236510;26;19992;-70
2024/04/18 02:02:54;;;;;;;7.60;5.65;;;8.10;99.90;;;;;;2234976;26;20650;-70
2024/04/18 02:03:55;;;;;;;7.25;5.18;;;8.10;99.90;;;;;;2235490;26;20085;-70
2024/04/18 02:04:55;;;;;;;8.15;5.32;;;8.10;99.90;;;;;;2236923;26;20006;-70
2024/04/18 02:05:56;;;;;;;8.10;5.82;;;8.10;99.90;;;;;;2233129;26;20014;-70
2024/04/18 02:06:56;;;;;;;8.75;6.60;;;8.10;99.90;;;;;;2235655;26;20003;-70
2024/04/18 02:07:57;;;;;;;6.28;4.80;;;8.10;99.90;;;;;;2227935;26;20647;-70
2024/04/18 02:08:57;;;;;;;5.90;4.93;;;8.10;99.90;;;;;;2230187;26;20019;-70
2024/04/18 02:09:58;;;;;;;7.45;4.88;;;8.10;99.90;;;;;;2236107;26;20000;-70
2024/04/18 02:10:58;;;;;;;6.85;5.00;;;8.10;99.90;;;;;;2236939;26;20440;-70
2024/04/18 02:11:59;;;;;;;6.70;4.88;;;8.10;99.90;;;;;;2236361;26;20336;-70
2024/04/18 02:12:59;;;;;;;6.65;4.70;;;8.10;99.90;;;;;;2235787;26;20043;-70
2024/04/18 02:14:00;;;;;;;7.35;4.97;;;8.10;99.90;;;;;;2234569;26;20015;-70
2024/04/18 02:15:02;;;;;;;9.60;4.65;;;8.10;99.90;;;;;;2233568;26;20004;-70
2024/04/18 02:16:03;;;;;;;5.57;5.07;;;8.10;99.90;;;;;;2236799;26;20004;-70
2024/04/18 02:17:04;;;;;;;5.93;5.20;;;8.10;99.90;;;;;;2236201;26;20474;-71
2024/04/18 02:18:04;;;;;;;5.40;4.63;;;8.10;99.90;;;;;;2233946;26;21170;-70
2024/04/18 02:19:05;;;;;;;8.57;5.57;;;8.10;99.90;;;;;;2235649;26;20067;-70
2024/04/18 02:20:06;;;;;;;8.23;5.63;;;8.10;99.90;;;;;;2236250;26;20031;-71
2024/04/18 02:21:06;;;;;;;6.20;4.97;;;8.10;99.90;;;;;;2237282;26;20007;-70
2024/04/18 02:22:07;;;;;;;5.70;4.95;;;8.10;99.90;;;;;;2237249;26;20012;-70
2024/04/18 02:23:07;;;;;;;5.93;5.05;;;8.10;99.90;;;;;;2235582;26;20004;-70
2024/04/18 02:24:08;;;;;;;8.32;5.78;;;8.10;99.90;;;;;;2235346;26;20019;-70
2024/04/18 02:25:09;;;;;;;8.02;5.88;;;8.10;99.90;;;;;;2236271;26;20000;-70
2024/04/18 02:26:10;;;;;;;6.07;4.22;;;8.10;99.90;;;;;;2235835;26;20022;-70
2024/04/18 02:27:10;;;;;;;7.78;4.88;;;8.10;99.90;;;;;;2235016;26;20014;-70
2024/04/18 02:28:11;;;;;;;6.40;5.05;;;8.10;99.90;;;;;;2234007;26;20000;-70
2024/04/18 02:29:11;;;;;;;7.45;5.10;;;8.10;99.90;;;;;;2235777;26;20014;-70
2024/04/18 02:30:12;;;;;;;10.15;5.38;;;8.10;99.90;;;;;;2235660;26;20000;-70
2024/04/18 02:31:12;;;;;;;8.35;5.47;;;8.10;99.90;;;;;;2232235;26;20012;-70
2024/04/18 02:32:13;;;;;;;7.00;5.72;;;8.10;99.90;;;;;;2239611;26;20086;-70
2024/04/18 02:33:15;;;;;;;6.93;4.93;;;8.10;99.90;;;;;;2240266;26;19999;-72
2024/04/18 02:34:15;;;;;;;7.90;4.88;;;8.10;99.90;;;;;;2233705;26;20005;-69
2024/04/18 02:35:16;;;;;;;7.05;5.28;;;8.10;99.90;;;;;;2235578;26;20019;-70
2024/04/18 02:36:16;;;;;;;7.72;5.30;;;8.00;99.90;;;;;;2236975;26;20004;-70
2024/04/18 02:37:17;;;;;;;5.45;4.95;;;8.10;99.90;;;;;;2233927;26;20350;-72
2024/04/18 02:38:17;;;;;;;7.05;5.57;;;8.10;99.90;;;;;;2236991;26;19999;-71
2024/04/18 02:39:18;;;;;;;5.03;4.22;;;8.00;99.90;;;;;;2235303;26;20017;-72
2024/04/18 02:40:18;;;;;;;6.68;4.97;;;8.10;99.90;;;;;;2235436;26;20011;-72
2024/04/18 02:41:19;;;;;;;5.63;4.97;;;8.10;99.90;;;;;;2232909;26;20003;-72
2024/04/18 02:42:19;;;;;;;7.95;5.32;;;8.00;99.90;;;;;;2220322;26;20004;-72
2024/04/18 02:43:20;;;;;;;5.22;4.72;;;8.10;99.90;;;;;;2234880;26;20007;-72
2024/04/18 02:44:23;;;;;;;6.45;4.63;;;8.10;99.90;;;;;;2234275;26;20577;-72
2024/04/18 02:45:23;;;;;;;4.93;4.40;;;8.10;99.90;;;;;;2230441;26;20012;-72
2024/04/18 02:46:24;;;;;;;5.15;4.63;;;8.10;99.90;;;;;;2235625;26;20011;-72
2024/04/18 02:47:25;;;;;;;5.38;4.43;;;8.10;99.90;;;;;;2235576;26;20841;-72
2024/04/18 02:48:26;;;;;;;4.82;4.35;;;8.10;99.90;;;;;;2234537;26;20022;-72
2024/04/18 02:49:26;;;;;;;5.55;5.05;;;8.10;99.90;;;;;;2232289;26;20482;-72
2024/04/18 02:50:27;;;;;;;6.00;4.63;;;8.10;99.90;;;;;;2230868;26;20012;-72
2024/04/18 02:51:27;;;;;;;6.38;4.80;;;8.10;99.90;;;;;;2233533;26;20003;-71
2024/04/18 02:52:28;;;;;;;6.13;4.85;;;8.10;99.90;;;;;;2238242;26;20448;-71
2024/04/18 02:53:28;;;;;;;7.15;4.85;;;8.10;99.90;;;;;;2238079;26;20080;-72
2024/04/18 02:54:30;;;;;;;7.70;6.10;;;8.10;99.90;;;;;;2235277;26;20000;-72
2024/04/18 02:55:30;;;;;;;4.82;4.35;;;8.10;99.90;;;;;;2248470;26;20006;-71
2024/04/18 02:56:31;;;;;;;6.22;4.57;;;8.10;99.90;;;;;;2252518;26;20875;-72
2024/04/18 02:57:31;;;;;;;5.32;4.82;;;8.10;99.90;;;;;;2236866;26;19999;-72
2024/04/18 02:58:32;;;;;;;5.80;4.82;;;8.10;99.90;;;;;;2236176;26;20015;-72
2024/04/18 02:59:32;;;;;;;8.20;4.70;;;8.10;99.90;;;;;;2237840;26;19996;-71
2024/04/18 03:00:36;;;;;;;6.22;4.70;;;8.10;99.90;;;;;;2237249;26;20252;-72
2024/04/18 03:01:37;;;;;;;6.55;4.53;;;8.10;99.90;;;;;;2236883;26;20501;-72
2024/04/18 03:02:38;;;;;;;6.10;4.30;;;8.10;99.90;;;;;;2238343;26;20401;-72
2024/04/18 03:03:39;;;;;;;5.82;4.50;;;8.10;99.90;;;;;;2236974;26;20010;-71
2024/04/18 03:04:39;;;;;;;4.53;4.07;;;8.10;99.90;;;;;;2240287;26;20660;-71
2024/04/18 03:05:40;;;;;;;6.03;4.50;;;8.10;99.90;;;;;;2240875;26;20054;-71
2024/04/18 03:06:40;;;;;;;7.60;4.60;;;8.10;99.90;;;;;;2237361;26;20004;-71
2024/04/18 03:07:41;;;;;;;6.53;4.90;;;8.10;99.90;;;;;;2239664;26;20012;-71
2024/04/18 03:08:43;;;;;;;5.20;4.70;;;8.20;99.90;;;;;;2241260;26;20003;-72
2024/04/18 03:09:43;;;;;;;7.20;4.63;;;8.10;99.90;;;;;;2236418;26;20805;-71
2024/04/18 03:10:48;;;;;;;6.20;3.95;;;8.10;99.90;;;;;;2238217;26;20430;-71
2024/04/18 03:11:49;;;;;;;6.78;4.90;;;8.20;99.90;;;;;;2235356;26;20007;-72
2024/04/18 03:12:53;;;;;;;6.50;4.35;;;8.10;99.90;;;;;;2235530;26;20008;-71
2024/04/18 03:13:54;;;;;;;8.80;4.88;;;8.10;99.90;;;;;;2238166;26;20000;-71
2024/04/18 03:14:54;;;;;;;6.18;4.30;;;8.20;99.90;;;;;;2236535;26;20013;-71
2024/04/18 03:15:55;;;;;;;7.25;4.63;;;8.10;99.90;;;;;;2235585;26;20471;-72
2024/04/18 03:16:55;;;;;;;5.38;4.18;;;8.20;99.90;;;;;;2237906;26;20005;-71
2024/04/18 03:17:58;;;;;;;6.32;4.53;;;8.20;99.90;;;;;;2235855;26;20003;-71
2024/04/18 03:19:09;;;;;;;4.70;4.20;;;8.10;99.90;;;;;;2237578;26;20068;-72
2024/04/18 03:20:10;;;;;;;5.80;4.10;;;8.10;99.90;;;;;;2238826;26;20076;-72
2024/04/18 03:21:11;;;;;;;8.07;5.03;;;8.20;99.90;;;;;;2248683;26;20072;-72
2024/04/18 03:22:11;;;;;;;5.03;4.53;;;8.20;99.90;;;;;;2248705;26;19998;-71
2024/04/18 03:23:12;;;;;;;4.30;3.90;;;8.20;99.90;;;;;;2236194;26;19999;-71
2024/04/18 03:24:20;;;;;;;5.32;4.55;;;8.20;99.90;;;;;;2237170;26;20008;-71
2024/04/18 03:25:20;;;;;;;6.43;4.38;;;8.20;99.90;;;;;;2235939;26;20014;-71
2024/04/18 03:26:21;;;;;;;5.03;4.10;;;8.20;99.90;;;;;;2236110;26;20022;-71
2024/04/18 03:27:21;;;;;;;6.70;4.43;;;8.20;99.90;;;;;;2237116;26;20011;-71
2024/04/18 03:28:22;;;;;;;6.30;5.28;;;8.20;99.90;;;;;;2225772;26;20685;-71
2024/04/18 03:29:23;;;;;;;5.22;4.22;;;8.20;99.90;;;;;;2234493;26;20005;-71
2024/04/18 03:30:23;;;;;;;5.45;4.22;;;8.20;99.90;;;;;;2250781;26;20013;-71
2024/04/18 03:31:24;;;;;;;7.57;5.38;;;8.30;99.90;;;;;;2250411;26;20005;-72
2024/04/18 03:32:25;;;;;;;5.00;4.30;;;8.30;99.90;;;;;;2237677;26;20332;-71
2024/04/18 03:33:26;;;;;;;6.15;4.72;;;8.30;99.90;;;;;;2237521;26;20003;-71
2024/04/18 03:34:26;;;;;;;6.07;4.88;;;8.30;99.90;;;;;;2237834;26;20005;-71
2024/04/18 03:35:27;;;;;;;6.95;4.50;;;8.30;99.90;;;;;;2237006;26;20006;-71
2024/04/18 03:36:28;;;;;;;6.68;5.43;;;8.30;99.90;;;;;;2237783;26;20000;-71
2024/04/18 03:37:28;;;;;;;6.80;4.65;;;8.30;99.90;;;;;;2232575;26;19991;-71
2024/04/18 03:38:29;;;;;;;4.43;3.97;;;8.30;99.90;;;;;;2222030;26;20073;-71
2024/04/18 03:39:29;;;;;;;6.45;4.80;;;8.20;99.90;;;;;;2235734;26;20347;-71
2024/04/18 03:40:30;;;;;;;7.22;5.13;;;8.30;99.90;;;;;;2236287;26;20010;-71
2024/04/18 03:41:31;;;;;;;6.70;5.60;;;8.20;99.90;;;;;;2232062;26;20014;-71
2024/04/18 03:42:31;;;;;;;5.45;4.43;;;8.20;99.90;;;;;;2233210;26;20074;-71
2024/04/18 03:43:33;;;;;;;6.13;4.47;;;8.20;99.90;;;;;;2233951;26;20076;-71
2024/04/18 03:44:33;;;;;;;7.15;5.22;;;8.20;99.90;;;;;;2237020;26;20051;-71
2024/04/18 03:45:34;;;;;;;8.32;5.13;;;8.20;99.90;;;;;;2234941;26;20004;-71
2024/04/18 03:46:36;;;;;;;5.85;5.20;;;8.20;99.90;;;;;;2235881;26;20003;-69
2024/04/18 03:47:36;;;;;;;7.05;4.90;;;8.20;99.90;;;;;;2238199;26;19995;-69
2024/04/18 03:48:37;;;;;;;4.75;4.15;;;8.20;99.90;;;;;;2236649;26;20000;-69
2024/04/18 03:49:37;;;;;;;6.50;4.32;;;8.20;99.90;;;;;;2234902;26;19996;-69
2024/04/18 03:50:38;;;;;;;6.40;4.60;;;8.20;99.90;;;;;;2242014;26;20011;-69
2024/04/18 03:51:39;;;;;;;5.70;4.28;;;8.20;99.90;;;;;;2242044;26;20027;-69
2024/04/18 03:52:40;;;;;;;6.03;4.13;;;8.20;99.90;;;;;;2236926;26;20010;-70
2024/04/18 03:53:40;;;;;;;7.10;4.68;;;8.20;99.90;;;;;;2236231;26;19991;-70
2024/04/18 03:54:41;;;;;;;5.82;4.43;;;8.20;99.90;;;;;;2237210;26;20087;-69
2024/04/18 03:55:41;;;;;;;4.45;3.92;;;8.20;99.90;;;;;;2237155;26;20014;-69
2024/04/18 03:56:42;;;;;;;6.72;4.30;;;8.20;99.90;;;;;;2236565;26;20456;-70
2024/04/18 03:57:42;;;;;;;4.40;4.00;;;8.20;99.90;;;;;;2237173;26;20000;-70
2024/04/18 03:58:43;;;;;;;4.75;4.20;;;8.20;99.90;;;;;;2236357;26;20003;-70
2024/04/18 03:59:43;;;;;;;6.57;4.10;;;8.20;99.90;;;;;;2236203;26;20007;-70
2024/04/18 04:00:46;;;;;;;6.10;4.60;;;8.20;99.90;;;;;;2236833;26;19995;-70
2024/04/18 04:01:46;;;;;;;6.15;3.45;;;8.10;99.90;;;;;;2237251;26;19992;-70
2024/04/18 04:02:46;;;;;;;6.30;4.50;;;8.10;99.90;;;;;;2236580;26;21064;-70
2024/04/18 04:03:47;;;;;;;7.20;5.00;;;8.10;99.90;;;;;;2247916;26;20090;-71
2024/04/18 04:04:50;;;;;;;6.38;4.55;;;8.10;99.90;;;;;;2249194;26;19991;-69
2024/04/18 04:05:50;;;;;;;9.52;5.25;;;8.10;99.90;;;;;;2236272;26;20439;-69
2024/04/18 04:06:51;;;;;;;4.30;3.90;;;8.10;99.90;;;;;;2236717;26;19996;-69
2024/04/18 04:07:51;;;;;;;5.40;4.13;;;8.10;99.90;;;;;;2236367;26;20031;-70
2024/04/18 04:08:52;;;;;;;4.18;3.80;;;8.10;99.90;;;;;;2235797;26;20072;-70
2024/04/18 04:09:52;;;;;;;6.60;4.70;;;8.10;99.90;;;;;;2232599;26;20524;-69
2024/04/18 04:10:53;;;;;;;4.43;4.00;;;8.00;99.90;;;;;;2236572;26;20000;-70
2024/04/18 04:11:53;;;;;;;4.55;4.18;;;8.10;99.90;;;;;;2237064;26;19996;-69
2024/04/18 04:12:54;;;;;;;5.70;5.10;;;8.00;99.90;;;;;;2235421;26;20011;-69
2024/04/18 04:13:54;;;;;;;6.30;4.82;;;8.00;99.90;;;;;;2238242;26;20023;-69
2024/04/18 04:14:55;;;;;;;6.07;4.47;;;8.10;99.90;;;;;;2235866;26;20009;-69
2024/04/18 04:15:56;;;;;;;4.82;4.35;;;8.10;99.90;;;;;;2235654;26;20535;-69
2024/04/18 04:16:56;;;;;;;5.55;5.05;;;8.00;99.90;;;;;;2237186;26;20113;-70
2024/04/18 04:17:57;;;;;;;8.25;5.43;;;8.00;99.90;;;;;;2236572;26;20004;-70
2024/04/18 04:18:58;;;;;;;5.45;4.10;;;8.00;99.90;;;;;;2237889;26;20010;-70
2024/04/18 04:19:58;;;;;;;5.47;4.78;;;8.00;99.90;;;;;;2233773;26;20010;-70
2024/04/18 04:20:59;;;;;;;6.70;4.75;;;8.00;99.90;;;;;;2235559;26;20031;-70
2024/04/18 04:21:59;;;;;;;6.38;5.10;;;8.00;99.90;;;;;;2237945;26;20007;-69
2024/04/18 04:23:00;;;;;;;5.00;4.53;;;8.00;99.90;;;;;;2237141;26;20743;-70
2024/04/18 04:24:00;;;;;;;6.30;4.50;;;8.00;99.90;;;;;;2236779;26;20080;-69
2024/04/18 04:25:01;;;;;;;5.57;5.07;;;8.00;99.90;;;;;;2236902;26;19991;-69
2024/04/18 04:26:01;;;;;;;8.18;5.18;;;8.10;99.90;;;;;;2235142;26;19995;-69
2024/04/18 04:27:02;;;;;;;5.05;4.55;;;8.00;99.90;;;;;;2236279;26;20010;-70
2024/04/18 04:28:02;;;;;;;5.10;4.63;;;8.00;99.90;;;;;;2238073;26;19996;-69
2024/04/18 04:29:03;;;;;;;5.80;5.20;;;8.00;99.90;;;;;;2235491;26;19999;-69
2024/04/18 04:30:04;;;;;;;8.60;4.72;;;8.00;99.90;;;;;;2237567;26;20010;-70
2024/04/18 04:31:04;;;;;;;7.22;4.95;;;8.00;99.90;;;;;;2236336;26;19992;-69
2024/04/18 04:32:23;;;;;;;5.20;4.70;;;8.00;99.90;;;;;;2235462;26;19996;-69
2024/04/18 04:33:27;;;;;;;8.85;4.78;;;8.00;99.90;;;;;;2235017;26;20072;-70
2024/04/18 04:34:28;;;;;;;7.15;4.60;;;8.00;99.90;;;;;;2237645;26;20011;-69
2024/04/18 04:35:28;;;;;;;6.53;4.82;;;8.00;99.90;;;;;;2236665;26;20011;-69
2024/04/18 04:36:29;;;;;;;5.28;4.57;;;8.00;99.90;;;;;;2237576;26;20085;-69
2024/04/18 04:37:29;;;;;;;4.25;3.75;;;8.00;99.90;;;;;;2236849;26;20003;-69
2024/04/18 04:38:30;;;;;;;4.78;4.28;;;8.00;99.90;;;;;;2236309;26;21078;-69
2024/04/18 04:39:30;;;;;;;5.05;4.55;;;8.00;99.90;;;;;;2251508;26;20015;-69
2024/04/18 04:40:31;;;;;;;8.80;4.38;;;8.00;99.90;;;;;;2247068;26;20104;-69
2024/04/18 04:41:32;;;;;;;6.28;4.20;;;8.00;99.90;;;;;;2236762;26;20607;-70
2024/04/18 04:42:33;;;;;;;5.43;4.25;;;8.00;99.90;;;;;;2236685;26;20003;-69
2024/04/18 04:43:33;;;;;;;5.85;3.75;;;8.00;99.90;;;;;;2233646;26;21678;-68
2024/04/18 04:44:34;;;;;;;8.20;4.57;;;8.00;99.90;;;;;;2236690;26;20823;-69
2024/04/18 04:45:35;;;;;;;5.03;4.63;;;8.00;99.90;;;;;;2235932;26;20007;-68
2024/04/18 04:46:35;;;;;;;4.45;3.42;;;8.00;99.90;;;;;;2236546;26;20003;-69
2024/04/18 04:47:36;;;;;;;5.03;4.20;;;8.00;99.90;;;;;;2237623;26;20418;-68
2024/04/18 04:48:38;;;;;;;6.38;3.72;;;8.00;99.90;;;;;;2235462;26;20059;-70
2024/04/18 04:49:38;;;;;;;6.15;4.25;;;8.00;99.90;;;;;;2235925;26;20082;-68
2024/04/18 04:50:40;;;;;;;7.88;4.60;;;8.10;99.90;;;;;;2236238;26;20451;-69
2024/04/18 04:51:41;;;;;;;5.93;4.00;;;8.00;99.90;;;;;;2237089;26;20018;-70
2024/04/18 04:52:41;;;;;;;4.22;3.80;;;8.00;99.90;;;;;;2238852;26;19999;-70
2024/04/18 04:53:42;;;;;;;7.28;3.92;;;8.00;99.90;;;;;;2235700;26;20072;-70
2024/04/18 04:54:43;;;;;;;7.93;4.00;;;8.00;99.90;;;;;;2237068;26;19995;-70
2024/04/18 04:55:44;;;;;;;5.20;3.92;;;8.00;99.90;;;;;;2235118;26;20730;-70
2024/04/18 04:56:44;;;;;;;6.80;3.90;;;7.90;99.90;;;;;;2235864;26;20405;-70
2024/04/18 04:57:45;;;;;;;5.80;4.20;;;7.90;99.90;;;;;;2237761;26;19995;-69
2024/04/18 04:58:45;;;;;;;11.77;4.10;;;8.00;99.90;;;;;;2235449;26;20005;-70
2024/04/18 04:59:46;;;;;;;6.50;4.38;;;8.00;99.90;;;;;;2237562;26;20002;-68
2024/04/18 05:00:47;;;;;;;6.70;4.13;;;8.00;99.90;;;;;;2232750;26;19992;-69
2024/04/18 05:01:47;;;;;;;7.05;4.22;;;7.90;99.90;;;;;;2234471;26;20072;-69
2024/04/18 05:02:48;;;;;;;6.25;4.40;;;7.90;99.90;;;;;;2237643;26;19999;-69
2024/04/18 05:03:48;;;;;;;6.13;3.60;;;7.90;99.90;;;;;;2234807;26;20005;-69
2024/04/18 05:04:49;;;;;;;8.95;3.70;;;7.90;99.90;;;;;;2236314;26;19996;-69
2024/04/18 05:05:50;;;;;;;6.07;4.00;;;7.90;99.90;;;;;;2237502;26;20455;-69
2024/04/18 05:06:50;;;;;;;6.85;4.00;;;7.90;99.90;;;;;;2235462;26;20343;-70
2024/04/18 05:07:51;;;;;;;8.32;3.97;;;7.90;99.90;;;;;;2237866;26;19999;-69
2024/04/18 05:08:52;;;;;;;7.50;3.50;;;7.90;99.90;;;;;;2236145;26;19995;-70
2024/04/18 05:09:52;;;;;;;5.05;3.95;;;7.90;99.90;;;;;;2234100;26;20011;-70
2024/04/18 05:10:53;;;;;;;6.93;3.53;;;7.90;99.90;;;;;;2224246;26;20011;-70
2024/04/18 05:11:53;;;;;;;3.67;2.97;;;7.90;99.90;;;;;;2208269;26;20001;-69
2024/04/18 05:12:54;;;;;;;3.95;3.50;;;7.90;99.90;;;;;;2226735;26;20369;-69
2024/04/18 05:13:55;;;;;;;5.53;3.67;;;7.90;99.90;;;;;;2237150;26;20401;-69
2024/04/18 05:14:55;;;;;;;5.07;3.50;;;7.90;99.90;;;;;;2233226;26;20006;-69
2024/04/18 05:15:56;;;;;;;6.43;4.18;;;7.90;99.90;;;;;;2237517;26;20900;-70
2024/04/18 05:16:56;;;;;;;6.40;4.15;;;8.00;99.90;;;;;;2235272;26;20078;-69
2024/04/18 05:17:57;;;;;;;6.25;4.05;;;8.00;99.90;;;;;;2236062;26;20007;-70
2024/04/18 05:18:57;;;;;;;7.40;3.90;;;8.00;99.90;;;;;;2236381;26;19999;-70
2024/04/18 05:19:58;;;;;;;5.07;3.70;;;8.00;99.90;;;;;;2234355;26;20003;-70
2024/04/18 05:20:59;;;;;;;6.72;3.83;;;8.00;99.90;;;;;;2234992;26;20076;-69